Time;durP1;ratioP1;P1;durP2;ratioP2;P2;SDS_P1;SDS_P2;PMS_P1;PMS_P2;Temp;Humidity;BMP_temperature;BMP_pressure;BME280_temperature;BME280_humidity;BME280_pressure;Samples;Min_cycle;Max_cycle;Signal;HPM_P1;HPM_P2
2022/11/19 00:02:17;;;;;;;7.07;3.63;;;-2.10;97.30;;;;;;5043379;28;20945;-86
2022/11/19 00:04:42;;;;;;;4.87;2.80;;;-2.10;97.30;;;;;;5060127;28;20184;-85
2022/11/19 00:07:08;;;;;;;2.63;2.43;;;-2.10;97.30;;;;;;5054049;28;20187;-86
2022/11/19 00:09:33;;;;;;;3.53;1.97;;;-2.10;97.30;;;;;;5054297;28;20194;-86
2022/11/19 00:14:43;;;;;;;3.20;3.00;;;-2.20;97.30;;;;;;5067118;28;20208;-86
2022/11/19 00:17:08;;;;;;;2.47;2.27;;;-2.20;97.30;;;;;;5072443;28;20622;-86
2022/11/19 00:19:34;;;;;;;2.23;2.07;;;-2.30;97.30;;;;;;5042277;28;20175;-86
2022/11/19 00:21:59;;;;;;;2.40;2.20;;;-2.30;97.30;;;;;;5053323;28;20183;-86
2022/11/19 00:24:28;;;;;;;2.47;2.27;;;-2.30;97.30;;;;;;5052919;28;20203;-84
2022/11/19 00:26:54;;;;;;;2.97;2.13;;;-2.30;97.30;;;;;;5072569;28;20183;-85
2022/11/19 00:29:20;;;;;;;3.30;2.47;;;-2.40;97.30;;;;;;5052859;28;20476;-83
2022/11/19 00:31:45;;;;;;;1.90;1.80;;;-2.40;97.30;;;;;;5070578;28;20432;-85
2022/11/19 00:34:11;;;;;;;2.10;1.90;;;-2.40;97.30;;;;;;5053871;28;20194;-85
2022/11/19 00:36:37;;;;;;;3.90;1.87;;;-2.50;97.30;;;;;;5051951;28;20187;-84
2022/11/19 00:39:02;;;;;;;2.70;2.50;;;-2.50;97.30;;;;;;5053695;28;20211;-86
2022/11/19 00:41:28;;;;;;;2.50;2.20;;;-2.60;97.30;;;;;;5052281;28;20187;-86
2022/11/19 00:43:53;;;;;;;2.70;2.50;;;-2.60;97.30;;;;;;5050773;28;20179;-86
2022/11/19 00:46:28;;;;;;;2.10;1.67;;;-2.60;97.30;;;;;;5054669;28;20239;-86
2022/11/19 00:48:56;;;;;;;5.60;5.33;;;-2.70;97.30;;;;;;5048807;28;20235;-83
2022/11/19 00:51:24;;;;;;;3.97;3.77;;;-2.70;97.30;;;;;;5047343;28;20803;-85
2022/11/19 00:53:50;;;;;;;1.70;1.63;;;-2.70;97.30;;;;;;5052853;28;20453;-84
2022/11/19 00:56:18;;;;;;;3.07;1.80;;;-2.70;97.30;;;;;;5053666;28;20464;-86
2022/11/19 00:58:45;;;;;;;1.73;1.63;;;-2.70;97.30;;;;;;5052961;28;20995;-86
2022/11/19 01:01:13;;;;;;;3.23;3.03;;;-2.70;97.30;;;;;;5053410;28;20453;-86
2022/11/19 01:03:40;;;;;;;1.90;1.80;;;-2.70;97.30;;;;;;5042029;28;20425;-86
2022/11/19 01:06:07;;;;;;;2.80;1.97;;;-2.70;97.30;;;;;;5066243;28;20433;-86
2022/11/19 01:08:33;;;;;;;7.30;3.20;;;-2.70;97.30;;;;;;5051208;28;20628;-85
2022/11/19 01:11:14;;;;;;;1.80;1.70;;;-2.70;97.30;;;;;;5064759;28;20994;-85
2022/11/19 01:13:40;;;;;;;2.63;2.43;;;-2.70;97.30;;;;;;5069473;28;20183;-85
2022/11/19 01:16:18;;;;;;;1.83;1.73;;;-2.70;97.30;;;;;;5068328;28;20426;-86
2022/11/19 01:18:46;;;;;;;1.40;1.30;;;-2.70;97.30;;;;;;5052472;28;20468;-86
2022/11/19 01:21:11;;;;;;;1.30;1.20;;;-2.80;97.30;;;;;;5053063;28;20412;-86
2022/11/19 01:23:38;;;;;;;4.90;1.83;;;-2.80;97.30;;;;;;5052031;28;20925;-85
2022/11/19 01:26:04;;;;;;;2.30;2.10;;;-2.80;97.30;;;;;;5065705;28;20598;-85
2022/11/19 01:28:30;;;;;;;3.27;3.07;;;-2.80;97.30;;;;;;5049813;28;20453;-85
2022/11/19 01:30:56;;;;;;;7.90;2.20;;;-2.80;97.30;;;;;;5046356;28;20240;-85
2022/11/19 01:33:22;;;;;;;1.30;1.20;;;-2.90;97.30;;;;;;5049880;28;20519;-85
2022/11/19 01:35:56;;;;;;;1.53;1.43;;;-2.90;97.30;;;;;;5048613;28;20437;-86
2022/11/19 01:38:21;;;;;;;1.30;1.20;;;-2.90;97.30;;;;;;5036741;28;20759;-85
2022/11/19 01:40:47;;;;;;;10.13;3.63;;;-2.90;97.30;;;;;;5052256;28;20425;-85
2022/11/19 01:43:13;;;;;;;6.83;2.87;;;-2.90;97.30;;;;;;5051928;28;20179;-85
2022/11/19 01:45:41;;;;;;;1.30;1.20;;;-2.90;97.30;;;;;;5052722;28;20674;-85
2022/11/19 01:48:10;;;;;;;1.80;1.70;;;-2.90;97.30;;;;;;5068005;28;20469;-85
2022/11/19 01:50:47;;;;;;;1.60;1.50;;;-2.90;97.30;;;;;;5050320;28;20428;-86
2022/11/19 01:53:13;;;;;;;2.17;2.00;;;-2.90;97.30;;;;;;5053876;28;20486;-85
2022/11/19 01:55:41;;;;;;;1.73;1.63;;;-2.90;97.30;;;;;;5055092;28;20424;-84
2022/11/19 01:58:07;;;;;;;1.63;1.53;;;-2.90;97.30;;;;;;5056182;28;20845;-86
2022/11/19 02:00:33;;;;;;;1.70;1.60;;;-3.00;97.30;;;;;;5055794;28;20482;-86
2022/11/19 02:02:58;;;;;;;1.47;1.37;;;-3.00;97.30;;;;;;5054081;28;20941;-85
2022/11/19 02:05:25;;;;;;;2.27;2.07;;;-3.00;97.30;;;;;;5046041;28;20669;-85
2022/11/19 02:07:53;;;;;;;3.73;2.70;;;-3.00;97.30;;;;;;5052129;28;20223;-84
2022/11/19 02:10:35;;;;;;;4.87;2.10;;;-3.00;97.30;;;;;;5055546;28;20442;-85
2022/11/19 02:13:14;;;;;;;1.60;1.50;;;-3.00;97.30;;;;;;5043692;28;20421;-83
2022/11/19 02:15:39;;;;;;;4.83;2.33;;;-3.10;97.30;;;;;;5055193;28;20433;-85
2022/11/19 02:18:29;;;;;;;4.70;2.03;;;-3.10;97.30;;;;;;5066987;28;20468;-86
2022/11/19 02:21:05;;;;;;;2.60;1.90;;;-3.10;97.30;;;;;;5052089;28;20179;-85
2022/11/19 02:23:48;;;;;;;2.57;2.37;;;-3.20;97.30;;;;;;5056309;28;20842;-83
2022/11/19 02:27:03;;;;;;;2.70;2.40;;;-3.20;97.30;;;;;;5054723;28;20420;-85
2022/11/19 02:29:28;;;;;;;1.47;1.37;;;-3.20;97.30;;;;;;5054955;28;20424;-85
2022/11/19 02:32:13;;;;;;;3.90;3.70;;;-3.20;97.30;;;;;;5067424;28;20422;-85
2022/11/19 02:34:53;;;;;;;3.10;2.90;;;-3.20;97.30;;;;;;5062646;28;20220;-85
2022/11/19 02:37:37;;;;;;;4.93;2.30;;;-3.20;97.30;;;;;;5055537;28;20413;-84
2022/11/19 02:40:15;;;;;;;1.40;1.30;;;-3.30;97.30;;;;;;5055241;28;20435;-86
2022/11/19 02:42:52;;;;;;;1.60;1.50;;;-3.30;97.30;;;;;;5048928;28;21008;-85
2022/11/19 02:45:38;;;;;;;2.10;1.53;;;-3.40;97.30;;;;;;5066887;28;20449;-85
2022/11/19 02:48:16;;;;;;;1.97;1.90;;;-3.50;97.30;;;;;;5067719;28;20492;-86
2022/11/19 02:50:47;;;;;;;2.07;1.93;;;-3.50;97.30;;;;;;5054430;28;20837;-85
2022/11/19 02:53:13;;;;;;;2.00;1.90;;;-3.50;97.30;;;;;;5064834;28;20410;-85
2022/11/19 02:55:39;;;;;;;1.40;1.30;;;-3.60;97.30;;;;;;5071554;28;20424;-85
2022/11/19 03:04:28;;;;;;;1.50;1.40;;;-3.50;97.30;;;;;;5059758;28;20216;-85
2022/11/19 03:06:34;;;;;;;1.67;1.60;;;-3.60;97.30;;;;;;5124058;23;20508;-83
2022/11/19 03:09:01;;;;;;;4.03;3.07;;;-3.60;97.30;;;;;;5036273;28;20518;-83
2022/11/19 03:11:28;;;;;;;3.60;2.60;;;-3.70;97.30;;;;;;5032691;28;20180;-83
2022/11/19 03:17:20;;;;;;;2.60;2.13;;;-3.80;97.30;;;;;;4965526;28;21087;-84
2022/11/19 03:20:04;;;;;;;3.07;2.80;;;-3.90;97.30;;;;;;4982378;28;20426;-83
2022/11/19 03:22:41;;;;;;;1.50;1.40;;;-3.90;97.30;;;;;;5023470;28;20427;-83
2022/11/19 03:25:14;;;;;;;1.83;1.73;;;-4.00;97.30;;;;;;5032772;28;20426;-82
2022/11/19 03:27:47;;;;;;;4.40;2.80;;;-4.00;97.30;;;;;;5035752;28;20496;-84
2022/11/19 03:30:15;;;;;;;2.70;2.47;;;-4.00;97.30;;;;;;5023764;28;20419;-83
2022/11/19 03:32:52;;;;;;;2.83;2.27;;;-4.10;97.30;;;;;;5020511;28;20430;-82
2022/11/19 03:35:23;;;;;;;1.73;1.63;;;-4.10;97.30;;;;;;5049280;28;20906;-82
2022/11/19 03:37:51;;;;;;;3.50;3.30;;;-4.20;97.30;;;;;;5043933;28;20664;-84
2022/11/19 03:40:19;;;;;;;1.30;1.20;;;-4.20;97.30;;;;;;5048518;28;20818;-81
2022/11/19 03:43:09;;;;;;;2.40;2.20;;;-4.20;97.30;;;;;;5054143;28;20927;-82
2022/11/19 03:45:40;;;;;;;1.73;1.67;;;-4.20;97.30;;;;;;5054388;28;20421;-83
2022/11/19 03:48:06;;;;;;;2.17;2.00;;;-4.30;97.30;;;;;;5036050;28;21006;-82
2022/11/19 03:50:44;;;;;;;1.80;1.63;;;-4.30;97.30;;;;;;5054444;28;20493;-83
2022/11/19 03:53:10;;;;;;;2.00;1.90;;;-4.30;97.30;;;;;;5024220;28;20422;-84
2022/11/19 03:56:03;;;;;;;9.43;3.17;;;-4.20;97.30;;;;;;5036368;28;20501;-81
2022/11/19 03:58:28;;;;;;;1.80;1.70;;;-4.20;97.30;;;;;;5031611;28;20711;-82
2022/11/19 04:00:54;;;;;;;2.47;2.27;;;-4.20;97.30;;;;;;5035950;28;20512;-83
2022/11/19 04:03:20;;;;;;;1.70;1.60;;;-4.20;97.30;;;;;;5035521;28;20326;-80
2022/11/19 04:05:46;;;;;;;1.90;1.80;;;-4.20;97.30;;;;;;5053644;28;20218;-83
2022/11/19 04:08:11;;;;;;;2.83;2.63;;;-4.20;97.30;;;;;;5032476;28;20742;-84
2022/11/19 04:10:37;;;;;;;1.80;1.70;;;-4.30;97.30;;;;;;5034213;28;20182;-82
2022/11/19 04:13:03;;;;;;;5.43;2.20;;;-4.30;97.30;;;;;;5024100;28;20190;-81
2022/11/19 04:15:28;;;;;;;2.53;2.33;;;-4.30;97.30;;;;;;5033948;28;20631;-82
2022/11/19 04:18:30;;;;;;;2.50;2.30;;;-4.30;97.30;;;;;;5032027;28;20223;-82
2022/11/19 04:20:55;;;;;;;3.07;2.03;;;-4.30;97.30;;;;;;5042668;28;20737;-83
2022/11/19 04:23:21;;;;;;;3.23;3.03;;;-4.30;97.30;;;;;;5053127;28;20414;-83
2022/11/19 04:26:12;;;;;;;1.97;1.87;;;-4.30;97.30;;;;;;5035205;28;20182;-82
2022/11/19 04:28:37;;;;;;;5.33;1.73;;;-4.30;97.30;;;;;;5032038;28;20283;-80
2022/11/19 04:31:15;;;;;;;1.93;1.80;;;-4.30;97.30;;;;;;5044031;28;20438;-79
2022/11/19 04:33:42;;;;;;;2.07;1.93;;;-4.40;97.30;;;;;;5032478;28;20172;-82
2022/11/19 04:36:08;;;;;;;1.70;1.60;;;-4.40;97.30;;;;;;5026942;28;20460;-84
2022/11/19 04:38:38;;;;;;;2.70;2.50;;;-4.40;97.30;;;;;;5060432;28;20461;-83
2022/11/19 04:41:04;;;;;;;1.73;1.47;;;-4.50;97.30;;;;;;5056297;28;20179;-83
2022/11/19 04:43:29;;;;;;;1.47;1.37;;;-4.50;97.30;;;;;;5035131;28;20430;-82
2022/11/19 04:45:55;;;;;;;2.40;2.23;;;-4.50;97.30;;;;;;5034867;28;20188;-84
2022/11/19 04:48:20;;;;;;;1.20;1.10;;;-4.60;97.30;;;;;;5034727;28;20212;-79
2022/11/19 04:50:46;;;;;;;1.33;1.23;;;-4.60;97.30;;;;;;5034500;28;20188;-79
2022/11/19 04:53:11;;;;;;;1.20;1.10;;;-4.70;97.30;;;;;;5027214;28;20666;-82
2022/11/19 04:55:37;;;;;;;2.90;2.70;;;-4.70;97.30;;;;;;5047073;28;20187;-80
2022/11/19 04:58:02;;;;;;;6.40;4.20;;;-4.70;97.30;;;;;;5034627;28;20208;-79
2022/11/19 05:00:28;;;;;;;2.90;2.70;;;-4.70;97.30;;;;;;5035012;28;20184;-80
2022/11/19 05:02:53;;;;;;;2.37;1.77;;;-4.70;97.30;;;;;;5034648;28;20192;-82
2022/11/19 05:05:19;;;;;;;3.87;3.00;;;-4.70;97.30;;;;;;5034430;28;20274;-80
2022/11/19 05:07:45;;;;;;;1.53;1.43;;;-4.70;97.30;;;;;;5034350;28;20281;-84
2022/11/19 05:10:11;;;;;;;1.50;1.40;;;-4.80;97.30;;;;;;5032745;28;20187;-80
2022/11/19 05:12:36;;;;;;;1.90;1.80;;;-4.80;97.30;;;;;;5023156;28;20870;-84
2022/11/19 05:15:02;;;;;;;2.80;1.77;;;-4.80;97.30;;;;;;5053170;28;20191;-80
2022/11/19 05:17:27;;;;;;;1.80;1.40;;;-4.80;97.30;;;;;;5034050;28;20215;-83
2022/11/19 05:19:53;;;;;;;2.23;2.03;;;-4.80;97.30;;;;;;5052261;28;20180;-82
2022/11/19 05:22:18;;;;;;;2.50;1.60;;;-4.80;97.30;;;;;;5031344;28;20266;-82
2022/11/19 05:24:44;;;;;;;3.27;2.03;;;-4.80;97.30;;;;;;5028362;28;20645;-82
2022/11/19 05:27:14;;;;;;;1.83;1.73;;;-4.80;97.30;;;;;;5031088;28;20212;-83
2022/11/19 05:29:40;;;;;;;3.83;3.63;;;-4.80;97.30;;;;;;5064144;28;20186;-79
2022/11/19 05:32:07;;;;;;;2.20;2.00;;;-4.80;97.30;;;;;;5045036;28;20816;-84
2022/11/19 05:34:33;;;;;;;7.17;6.77;;;-4.90;97.30;;;;;;5058540;28;20191;-84
2022/11/19 05:36:58;;;;;;;9.10;4.43;;;-4.90;97.30;;;;;;5055445;28;20447;-84
2022/11/19 05:39:24;;;;;;;7.90;3.43;;;-4.90;97.30;;;;;;5055867;28;20194;-84
2022/11/19 05:41:50;;;;;;;4.17;3.50;;;-4.90;97.30;;;;;;5052976;28;20202;-83
2022/11/19 05:44:24;;;;;;;2.13;1.97;;;-4.90;97.30;;;;;;5037633;28;20176;-84
2022/11/19 05:46:50;;;;;;;8.93;4.80;;;-4.90;97.30;;;;;;5037848;28;20210;-82
2022/11/19 05:49:15;;;;;;;1.93;1.83;;;-4.90;97.30;;;;;;5032340;28;20420;-85
2022/11/19 05:51:41;;;;;;;2.30;2.17;;;-4.90;97.30;;;;;;5051947;28;20182;-84
2022/11/19 05:54:09;;;;;;;4.40;4.00;;;-5.00;97.30;;;;;;5026474;28;20271;-84
2022/11/19 05:56:35;;;;;;;6.17;5.40;;;-5.00;97.30;;;;;;5036266;28;20194;-85
2022/11/19 05:59:00;;;;;;;1.83;1.73;;;-5.00;97.30;;;;;;5035964;28;20468;-85
2022/11/19 06:01:41;;;;;;;3.00;2.80;;;-5.10;97.30;;;;;;5039923;28;20182;-84
2022/11/19 06:04:09;;;;;;;3.10;2.90;;;-5.10;97.30;;;;;;5065284;28;20183;-84
2022/11/19 06:06:35;;;;;;;2.87;2.67;;;-5.10;97.30;;;;;;5038869;28;20967;-84
2022/11/19 06:09:00;;;;;;;7.77;4.30;;;-5.10;97.30;;;;;;5038092;28;20428;-83
2022/11/19 06:14:10;;;;;;;14.83;7.70;;;-5.10;97.30;;;;;;5055327;28;20272;-83
2022/11/19 06:16:35;;;;;;;7.20;3.97;;;-5.10;97.30;;;;;;5037427;28;20458;-84
2022/11/19 06:19:01;;;;;;;6.40;4.43;;;-5.10;97.30;;;;;;5032879;28;20310;-84
2022/11/19 06:21:26;;;;;;;5.00;4.70;;;-5.10;97.30;;;;;;5037689;28;20228;-84
2022/11/19 06:23:52;;;;;;;2.77;2.57;;;-5.10;97.30;;;;;;5055291;28;20195;-83
2022/11/19 06:26:26;;;;;;;3.80;3.50;;;-5.10;97.30;;;;;;5035934;28;20199;-84
2022/11/19 06:28:52;;;;;;;3.87;3.67;;;-5.10;97.30;;;;;;5028364;28;20191;-84
2022/11/19 06:31:18;;;;;;;8.13;4.60;;;-5.10;97.30;;;;;;5031391;28;20426;-84
2022/11/19 06:33:44;;;;;;;9.73;4.27;;;-5.10;97.30;;;;;;5050354;28;20468;-84
2022/11/19 06:36:09;;;;;;;5.73;4.23;;;-5.10;97.30;;;;;;5041565;28;20522;-82
2022/11/19 06:38:35;;;;;;;10.70;5.13;;;-5.10;97.30;;;;;;5042298;28;20223;-84
2022/11/19 06:41:00;;;;;;;2.67;2.50;;;-5.20;97.30;;;;;;5063920;28;20183;-80
2022/11/19 06:43:26;;;;;;;3.47;3.27;;;-5.10;97.30;;;;;;5030409;28;20188;-84
2022/11/19 06:45:52;;;;;;;3.53;3.33;;;-5.10;97.30;;;;;;5035824;28;20222;-81
2022/11/19 06:48:17;;;;;;;12.13;2.60;;;-5.10;97.30;;;;;;5032357;28;20689;-85
2022/11/19 06:50:46;;;;;;;2.40;2.20;;;-5.10;97.30;;;;;;5022677;28;20756;-84
2022/11/19 06:53:12;;;;;;;3.00;2.80;;;-5.00;97.30;;;;;;5050686;28;20210;-83
2022/11/19 06:55:38;;;;;;;2.30;2.10;;;-5.00;97.30;;;;;;5040342;28;20422;-85
2022/11/19 06:58:05;;;;;;;6.50;3.77;;;-5.00;97.30;;;;;;5040479;28;20208;-83
2022/11/19 07:00:31;;;;;;;2.80;2.03;;;-4.90;97.30;;;;;;5034083;28;20191;-84
2022/11/19 07:02:56;;;;;;;2.87;2.70;;;-4.90;97.30;;;;;;5035037;28;20923;-83
2022/11/19 07:05:22;;;;;;;1.50;1.40;;;-4.80;97.30;;;;;;5030141;28;20419;-84
2022/11/19 07:07:48;;;;;;;2.37;2.17;;;-4.80;97.30;;;;;;5016707;28;20239;-84
2022/11/19 07:10:13;;;;;;;1.87;1.77;;;-4.80;97.30;;;;;;5051711;28;20233;-85
2022/11/19 07:12:39;;;;;;;2.60;2.40;;;-4.70;97.30;;;;;;5035892;28;20727;-83
2022/11/19 07:15:05;;;;;;;2.43;2.23;;;-4.70;97.30;;;;;;5036493;28;20278;-84
2022/11/19 07:17:30;;;;;;;1.80;1.70;;;-4.70;97.30;;;;;;5054804;28;20217;-84
2022/11/19 07:19:56;;;;;;;10.33;3.43;;;-4.60;97.30;;;;;;5041104;28;20484;-84
2022/11/19 07:22:21;;;;;;;2.17;2.00;;;-4.60;97.30;;;;;;5053963;28;20232;-84
2022/11/19 07:24:47;;;;;;;1.90;1.80;;;-4.60;97.30;;;;;;5057237;28;20192;-84
2022/11/19 07:27:14;;;;;;;3.07;2.17;;;-4.50;97.30;;;;;;5036379;28;20203;-84
2022/11/19 07:29:40;;;;;;;2.77;2.47;;;-4.40;97.30;;;;;;5033004;28;20219;-83
2022/11/19 07:32:05;;;;;;;4.47;4.17;;;-4.40;97.30;;;;;;5046749;28;22264;-86
2022/11/19 07:34:31;;;;;;;1.63;1.53;;;-4.30;97.30;;;;;;5045549;28;20293;-84
2022/11/19 07:36:56;;;;;;;1.60;1.50;;;-4.20;97.30;;;;;;5034804;28;20323;-84
2022/11/19 07:39:21;;;;;;;2.40;2.20;;;-4.20;97.30;;;;;;5033200;28;20209;-83
2022/11/19 07:44:32;;;;;;;1.87;1.77;;;-4.00;97.30;;;;;;5054238;28;20191;-84
2022/11/19 07:46:58;;;;;;;4.30;2.37;;;-4.00;97.30;;;;;;5037572;28;20445;-84
2022/11/19 07:49:24;;;;;;;10.00;3.13;;;-3.50;97.30;;;;;;5027504;28;20216;-84
2022/11/19 07:51:50;;;;;;;1.60;1.50;;;-3.30;97.30;;;;;;5033870;28;20275;-83
2022/11/19 07:54:36;;;;;;;3.10;2.90;;;-3.20;97.30;;;;;;5035926;28;21125;-84
2022/11/19 07:57:01;;;;;;;6.37;4.80;;;-3.30;97.30;;;;;;5022240;28;20430;-84
2022/11/19 07:59:27;;;;;;;3.43;3.23;;;-3.30;97.30;;;;;;5033175;28;20450;-84
2022/11/19 08:01:53;;;;;;;1.83;1.73;;;-3.30;97.30;;;;;;5035543;28;20189;-84
2022/11/19 08:04:18;;;;;;;5.40;2.20;;;-3.30;97.30;;;;;;5027138;28;20179;-84
2022/11/19 08:06:44;;;;;;;4.43;3.33;;;-3.20;97.30;;;;;;5035718;28;20894;-84
2022/11/19 08:09:09;;;;;;;1.77;1.67;;;-3.20;97.30;;;;;;5030400;28;20187;-85
2022/11/19 08:11:35;;;;;;;1.73;1.63;;;-3.20;97.30;;;;;;5033326;28;20272;-85
2022/11/19 08:14:01;;;;;;;3.13;2.10;;;-3.10;97.30;;;;;;5034010;28;20184;-84
2022/11/19 08:19:14;;;;;;;1.80;1.67;;;-3.00;97.30;;;;;;5052436;28;20204;-83
2022/11/19 08:21:42;;;;;;;3.27;3.10;;;-3.00;97.30;;;;;;5046305;28;20517;-81
2022/11/19 08:24:08;;;;;;;8.13;4.67;;;-2.90;97.30;;;;;;5054749;28;20414;-82
2022/11/19 08:26:35;;;;;;;3.37;2.83;;;-2.90;97.30;;;;;;5029769;28;20429;-82
2022/11/19 08:29:00;;;;;;;2.30;2.10;;;-2.80;97.30;;;;;;5050012;28;20414;-84
2022/11/19 08:31:26;;;;;;;4.90;2.23;;;-2.70;97.30;;;;;;5040950;28;20776;-84
2022/11/19 08:33:52;;;;;;;4.60;2.40;;;-2.70;97.30;;;;;;5034089;28;20191;-84
2022/11/19 08:36:17;;;;;;;6.10;3.07;;;-2.60;97.30;;;;;;5037908;28;20204;-84
2022/11/19 08:38:43;;;;;;;4.67;2.07;;;-2.50;97.30;;;;;;5033433;28;20214;-84
2022/11/19 08:43:52;;;;;;;4.00;3.60;;;-2.40;97.30;;;;;;5063651;28;20190;-84
2022/11/19 08:46:18;;;;;;;3.27;3.07;;;-2.30;97.30;;;;;;5033318;28;20414;-84
2022/11/19 08:48:43;;;;;;;3.80;3.17;;;-2.20;97.30;;;;;;5038540;28;20606;-84
2022/11/19 08:51:09;;;;;;;3.63;3.40;;;-2.20;97.30;;;;;;5028802;28;20262;-83
2022/11/19 08:53:35;;;;;;;4.77;3.70;;;-2.10;97.30;;;;;;5031102;28;20606;-84
2022/11/19 08:56:01;;;;;;;2.90;2.60;;;-2.00;97.30;;;;;;5047100;28;20355;-85
2022/11/19 08:58:27;;;;;;;8.20;2.73;;;-2.00;97.30;;;;;;5037450;28;20557;-84
2022/11/19 09:00:53;;;;;;;2.27;2.07;;;-1.90;97.30;;;;;;5037333;28;20195;-84
2022/11/19 09:03:19;;;;;;;2.90;2.70;;;-1.80;97.30;;;;;;5035614;28;20772;-81
2022/11/19 09:05:44;;;;;;;2.73;2.53;;;-1.80;97.30;;;;;;5038464;28;20454;-86
2022/11/19 09:08:10;;;;;;;4.00;2.73;;;-1.70;97.30;;;;;;5070042;28;20219;-84
2022/11/19 09:10:36;;;;;;;3.83;2.60;;;-1.60;97.30;;;;;;5036826;28;20275;-85
2022/11/19 09:13:03;;;;;;;5.50;4.03;;;-1.50;97.30;;;;;;5034074;28;20241;-85
2022/11/19 09:15:29;;;;;;;2.90;2.70;;;-1.50;97.30;;;;;;5034161;28;20422;-85
2022/11/19 09:17:54;;;;;;;1.67;1.57;;;-1.40;97.30;;;;;;5023859;28;20466;-84
2022/11/19 09:20:20;;;;;;;7.83;3.77;;;-1.30;97.30;;;;;;5057001;28;20634;-85
2022/11/19 09:22:45;;;;;;;1.73;1.63;;;-1.20;97.30;;;;;;5032911;28;20274;-86
2022/11/19 09:25:11;;;;;;;4.17;3.93;;;-1.10;97.30;;;;;;5034172;28;20456;-85
2022/11/19 09:27:36;;;;;;;5.97;3.33;;;-1.00;97.30;;;;;;5049788;28;20203;-85
2022/11/19 09:30:04;;;;;;;6.53;4.53;;;-1.00;97.30;;;;;;5042544;28;20179;-86
2022/11/19 09:32:29;;;;;;;2.57;2.37;;;-0.90;97.30;;;;;;5029150;28;20179;-86
2022/11/19 09:34:55;;;;;;;2.23;2.03;;;-0.80;97.30;;;;;;5029612;28;20414;-85
2022/11/19 09:37:20;;;;;;;5.10;2.40;;;-0.70;97.30;;;;;;5021795;28;20191;-85
2022/11/19 09:39:46;;;;;;;7.90;3.07;;;-0.60;97.30;;;;;;5043705;28;20672;-85
2022/11/19 09:42:35;;;;;;;2.40;2.07;;;-0.50;97.30;;;;;;5017213;28;20173;-86
2022/11/19 09:45:13;;;;;;;3.50;3.30;;;-0.40;97.30;;;;;;5057783;28;20179;-87
2022/11/19 09:48:13;;;;;;;2.50;2.30;;;-0.30;97.30;;;;;;5031770;28;20473;-86
2022/11/19 09:50:50;;;;;;;3.57;2.07;;;-0.30;97.30;;;;;;5031553;28;20411;-86
2022/11/19 09:53:18;;;;;;;4.87;4.50;;;-0.20;97.30;;;;;;5021271;28;20411;-86
2022/11/19 09:55:46;;;;;;;10.40;3.73;;;0.00;97.30;;;;;;5026864;28;20426;-87
2022/11/19 09:58:23;;;;;;;2.80;2.37;;;0.10;97.30;;;;;;5045244;28;20573;-86
2022/11/19 10:00:49;;;;;;;2.23;2.03;;;0.30;97.30;;;;;;5031799;28;20513;-86
2022/11/19 10:03:19;;;;;;;2.70;2.50;;;0.40;97.30;;;;;;5029345;28;21021;-86
2022/11/19 10:06:03;;;;;;;4.30;4.03;;;0.50;97.30;;;;;;5030882;28;20997;-86
2022/11/19 10:08:41;;;;;;;7.83;3.40;;;0.50;97.30;;;;;;5046672;28;20460;-87
2022/11/19 10:11:13;;;;;;;2.50;2.30;;;0.50;97.30;;;;;;5028389;28;20439;-86
2022/11/19 10:14:23;;;;;;;2.93;2.77;;;0.50;97.30;;;;;;5047827;28;20429;-87
2022/11/19 10:17:11;;;;;;;2.57;2.37;;;0.60;97.30;;;;;;5036742;28;20447;-86
2022/11/19 10:19:46;;;;;;;1.60;1.50;;;0.60;97.30;;;;;;5040134;28;20508;-86
2022/11/19 10:22:23;;;;;;;4.90;3.80;;;0.60;97.30;;;;;;5041803;28;20783;-87
2022/11/19 10:25:14;;;;;;;2.37;2.17;;;0.60;97.30;;;;;;5055656;28;20726;-86
2022/11/19 10:27:47;;;;;;;8.13;3.23;;;0.50;97.30;;;;;;5015355;28;20427;-87
2022/11/19 10:30:23;;;;;;;2.63;2.43;;;0.50;97.30;;;;;;5046262;28;20413;-87
2022/11/19 10:33:10;;;;;;;1.77;1.67;;;0.50;97.30;;;;;;5044738;28;20441;-86
2022/11/19 10:35:40;;;;;;;3.20;2.30;;;0.60;97.30;;;;;;5036857;28;20868;-86
2022/11/19 10:38:17;;;;;;;1.80;1.70;;;0.70;97.30;;;;;;5043118;28;20466;-87
2022/11/19 10:40:49;;;;;;;3.33;2.60;;;0.70;97.30;;;;;;5033581;28;20433;-87
2022/11/19 10:43:50;;;;;;;4.03;2.40;;;0.70;97.30;;;;;;5046575;28;20768;-87
2022/11/19 10:46:20;;;;;;;3.77;3.57;;;0.70;97.30;;;;;;5032083;28;20463;-86
2022/11/19 10:48:50;;;;;;;2.90;2.40;;;0.70;97.30;;;;;;5042189;28;20428;-86
2022/11/19 10:51:22;;;;;;;1.87;1.80;;;0.70;97.30;;;;;;5037846;28;21074;-87
2022/11/19 10:53:53;;;;;;;4.87;2.93;;;0.70;97.30;;;;;;5042559;28;20423;-86
2022/11/19 10:56:33;;;;;;;5.10;2.33;;;0.70;97.30;;;;;;5031479;28;20423;-86
2022/11/19 10:59:27;;;;;;;6.73;1.70;;;0.70;97.30;;;;;;5023521;28;20582;-86
2022/11/19 11:01:58;;;;;;;3.90;3.13;;;0.70;97.30;;;;;;5032279;28;20992;-85
2022/11/19 11:04:26;;;;;;;3.47;3.27;;;0.70;97.30;;;;;;5034637;28;20798;-86
2022/11/19 11:07:00;;;;;;;4.30;3.10;;;0.70;97.30;;;;;;5025069;28;20834;-85
2022/11/19 11:09:35;;;;;;;5.50;4.30;;;0.70;97.30;;;;;;5032132;28;20781;-86
2022/11/19 11:15:15;;;;;;;3.37;3.17;;;0.70;97.30;;;;;;5043348;28;20715;-86
2022/11/19 11:17:43;;;;;;;6.07;3.67;;;0.80;97.30;;;;;;5023493;28;20504;-86
2022/11/19 11:20:15;;;;;;;3.80;2.90;;;0.90;97.30;;;;;;5026343;28;20521;-86
2022/11/19 11:22:42;;;;;;;2.70;2.50;;;1.00;97.30;;;;;;5020955;28;20959;-86
2022/11/19 11:25:24;;;;;;;3.80;1.97;;;1.10;97.30;;;;;;5044930;28;20417;-88
2022/11/19 11:28:05;;;;;;;6.60;2.70;;;1.20;97.30;;;;;;5027877;28;20431;-86
2022/11/19 11:30:31;;;;;;;3.30;2.20;;;1.30;97.30;;;;;;5062482;28;20423;-86
2022/11/19 11:32:57;;;;;;;2.30;2.10;;;1.40;97.30;;;;;;5053053;28;20662;-85
2022/11/19 11:35:33;;;;;;;2.27;1.40;;;1.50;97.30;;;;;;5041132;28;20501;-87
2022/11/19 11:38:01;;;;;;;2.07;1.93;;;1.60;97.30;;;;;;5053568;28;20200;-88
2022/11/19 11:40:27;;;;;;;5.73;4.33;;;1.80;97.30;;;;;;5068494;28;20426;-88
2022/11/19 11:42:53;;;;;;;6.80;4.50;;;2.00;97.30;;;;;;5042284;28;20458;-87
2022/11/19 11:45:31;;;;;;;3.20;2.40;;;2.20;97.30;;;;;;5044463;28;20492;-87
2022/11/19 11:48:03;;;;;;;6.17;3.37;;;2.30;97.30;;;;;;5043657;28;20862;-87
2022/11/19 11:50:29;;;;;;;3.23;3.03;;;2.60;97.30;;;;;;5044843;28;20446;-86
2022/11/19 11:52:56;;;;;;;3.70;2.43;;;2.80;97.20;;;;;;5040282;28;20961;-87
2022/11/19 11:55:22;;;;;;;3.07;1.57;;;3.10;96.70;;;;;;5030751;28;20595;-86
2022/11/19 11:57:56;;;;;;;3.63;2.53;;;3.30;95.80;;;;;;5040425;28;20469;-86
2022/11/19 12:00:36;;;;;;;4.30;3.20;;;3.50;95.50;;;;;;5033654;28;20187;-87
2022/11/19 12:03:07;;;;;;;5.17;2.50;;;3.60;94.80;;;;;;5033906;28;20422;-86
2022/11/19 12:05:46;;;;;;;4.87;3.83;;;3.60;94.30;;;;;;5041372;28;20514;-86
2022/11/19 12:08:43;;;;;;;2.20;2.10;;;3.60;94.00;;;;;;5045219;28;21037;-86
2022/11/19 12:11:52;;;;;;;2.63;2.43;;;3.70;93.40;;;;;;5029660;28;20426;-88
2022/11/19 12:14:20;;;;;;;4.80;2.97;;;3.70;92.40;;;;;;5042759;28;20452;-86
2022/11/19 12:17:13;;;;;;;3.13;2.07;;;3.60;91.60;;;;;;5026311;28;20446;-86
2022/11/19 12:20:00;;;;;;;4.20;3.20;;;3.70;91.90;;;;;;5035904;28;20462;-86
2022/11/19 12:22:28;;;;;;;4.00;2.57;;;3.80;91.40;;;;;;5037337;28;20950;-86
2022/11/19 12:25:27;;;;;;;2.50;2.30;;;4.00;91.10;;;;;;5050422;28;20418;-86
2022/11/19 12:27:58;;;;;;;1.37;1.27;;;4.20;91.10;;;;;;5021814;28;20464;-86
2022/11/19 12:30:33;;;;;;;2.60;2.43;;;4.30;90.20;;;;;;5057922;28;20485;-86
2022/11/19 12:33:41;;;;;;;4.07;1.93;;;4.40;89.90;;;;;;5050489;28;20410;-87
2022/11/19 12:36:06;;;;;;;5.07;1.77;;;4.40;90.20;;;;;;5007975;28;20489;-86
2022/11/19 12:38:59;;;;;;;3.57;2.00;;;4.40;90.40;;;;;;5038804;28;20494;-86
2022/11/19 12:41:48;;;;;;;3.07;2.03;;;4.40;90.60;;;;;;5017006;28;20204;-86
2022/11/19 12:44:32;;;;;;;1.67;1.57;;;4.40;90.40;;;;;;5030115;28;20505;-86
2022/11/19 12:47:16;;;;;;;8.93;4.00;;;4.40;90.40;;;;;;5029092;28;20438;-86
2022/11/19 12:50:01;;;;;;;25.63;3.57;;;4.50;89.80;;;;;;5035984;28;20419;-87
2022/11/19 12:52:57;;;;;;;2.53;2.07;;;4.50;89.60;;;;;;5058356;28;20425;-86
2022/11/19 12:55:39;;;;;;;3.57;3.43;;;4.70;89.00;;;;;;5035096;28;20422;-86
2022/11/19 12:58:08;;;;;;;2.43;2.23;;;4.80;88.80;;;;;;5035156;28;20464;-86
2022/11/19 13:00:39;;;;;;;1.47;1.37;;;4.80;88.20;;;;;;5050328;28;20509;-86
2022/11/19 13:03:07;;;;;;;2.57;2.37;;;4.80;87.50;;;;;;5019785;28;20433;-86
2022/11/19 13:05:39;;;;;;;5.70;2.20;;;4.90;87.20;;;;;;5051038;28;20414;-85
2022/11/19 13:08:14;;;;;;;2.13;1.97;;;5.00;87.20;;;;;;5038969;28;20840;-84
2022/11/19 13:10:57;;;;;;;7.00;2.70;;;5.10;86.80;;;;;;5049652;28;20983;-87
2022/11/19 13:13:27;;;;;;;2.33;2.17;;;5.20;86.50;;;;;;5060407;28;20429;-86
2022/11/19 13:16:05;;;;;;;2.77;2.07;;;5.20;86.70;;;;;;5044591;28;20418;-86
2022/11/19 13:18:35;;;;;;;7.07;2.90;;;5.20;86.90;;;;;;5033212;28;20553;-87
2022/11/19 13:21:12;;;;;;;3.70;3.50;;;5.10;86.80;;;;;;5042202;28;20515;-85
2022/11/19 13:23:42;;;;;;;2.20;1.83;;;5.10;87.00;;;;;;5057976;28;20414;-87
2022/11/19 13:26:21;;;;;;;5.87;2.23;;;5.10;87.20;;;;;;5028151;28;20453;-84
2022/11/19 13:28:49;;;;;;;1.67;1.57;;;5.10;86.90;;;;;;5024565;28;20573;-85
2022/11/19 13:31:40;;;;;;;2.40;2.03;;;5.00;86.70;;;;;;5053150;28;20414;-82
2022/11/19 13:34:23;;;;;;;6.97;2.07;;;5.00;86.40;;;;;;5049220;28;20425;-84
2022/11/19 13:37:01;;;;;;;2.30;2.10;;;5.00;86.70;;;;;;5042906;28;20548;-84